SWA2903 KLAX-KSTL
Flight info
| Callsign | SWA2903 |
|---|---|
| Flight time | N/A |
| Altitude | 39000 |
| Route | STHBY1 CLEEE PKE J96 DRK ESPAN CIM KK45A ICT FOWNE BUM KAYLA3 |
| Aircraft | B737/M-SDE2E3FGHIRWXY/LB1 |
Departure
| Time | 2026-05-01 12:33 |
|---|---|
| Airport | Los Angeles International Airport (KLAX) |
Arrival
| Time | N/A |
|---|---|
| Airport | St. Louis Lambert International Airport (KSTL) |
| Time | Latitude | Longitude | Altitude | Speed | Heading |
|---|---|---|---|---|---|
| 2026-05-01 12:17 | 33.94783 | -118.40172 | 94 ft | 0 kts | 141° |
| 2026-05-01 12:27 | 33.94784 | -118.40173 | 94 ft | 2 kts | 141° |
| 2026-05-01 12:28 | 33.94809 | -118.40200 | 95 ft | 2 kts | 131° |
| 2026-05-01 12:28 | 33.94819 | -118.40216 | 94 ft | 2 kts | 117° |
| 2026-05-01 12:28 | 33.94822 | -118.40253 | 93 ft | 2 kts | 75° |
| 2026-05-01 12:29 | 33.94821 | -118.40258 | 94 ft | 0 kts | 75° |
| 2026-05-01 12:31 | 33.94822 | -118.40248 | 93 ft | 6 kts | 78° |
| 2026-05-01 12:31 | 33.94833 | -118.40157 | 96 ft | 16 kts | 83° |
| 2026-05-01 12:31 | 33.94890 | -118.40078 | 97 ft | 10 kts | 13° |
| 2026-05-01 12:32 | 33.94923 | -118.40007 | 98 ft | 10 kts | 82° |
| 2026-05-01 12:32 | 33.95010 | -118.39914 | 107 ft | 10 kts | 343° |
| 2026-05-01 12:32 | 33.95039 | -118.39980 | 108 ft | 10 kts | 265° |
| 2026-05-01 12:33 | 33.95018 | -118.40191 | 108 ft | 57 kts | 263° |
| 2026-05-01 12:33 | 33.94939 | -118.40959 | 107 ft | 125 kts | 263° |
| 2026-05-01 12:33 | 33.94810 | -118.42207 | 164 ft | 171 kts | 263° |
| 2026-05-01 12:33 | 33.94692 | -118.43615 | 1006 ft | 160 kts | 264° |
| 2026-05-01 12:34 | 33.94567 | -118.44971 | 1698 ft | 168 kts | 261° |
| 2026-05-01 12:34 | 33.94201 | -118.46424 | 2030 ft | 198 kts | 236° |
| 2026-05-01 12:34 | 33.93202 | -118.47676 | 2310 ft | 225 kts | 208° |
| 2026-05-01 12:34 | 33.91704 | -118.48456 | 2791 ft | 240 kts | 201° |
| 2026-05-01 12:35 | 33.90089 | -118.49213 | 3287 ft | 260 kts | 201° |
| 2026-05-01 12:35 | 33.88376 | -118.50021 | 4012 ft | 270 kts | 202° |
| 2026-05-01 12:35 | 33.86601 | -118.50864 | 4894 ft | 275 kts | 202° |
| 2026-05-01 12:35 | 33.84826 | -118.51709 | 5823 ft | 277 kts | 203° |
| 2026-05-01 12:36 | 33.83013 | -118.52534 | 6777 ft | 279 kts | 198° |
| 2026-05-01 12:36 | 33.81129 | -118.53073 | 7648 ft | 282 kts | 192° |
| 2026-05-01 12:36 | 33.79193 | -118.53530 | 8531 ft | 284 kts | 192° |
| 2026-05-01 12:36 | 33.77243 | -118.53925 | 9399 ft | 287 kts | 182° |
| 2026-05-01 12:37 | 33.75248 | -118.53575 | 10236 ft | 289 kts | 165° |
| 2026-05-01 12:37 | 33.73250 | -118.52940 | 10573 ft | 312 kts | 165° |
| 2026-05-01 12:37 | 33.71147 | -118.52023 | 10736 ft | 337 kts | 149° |
| 2026-05-01 12:37 | 33.69392 | -118.50045 | 10999 ft | 356 kts | 122° |
| 2026-05-01 12:38 | 33.68346 | -118.47302 | 11602 ft | 363 kts | 109° |
| 2026-05-01 12:38 | 33.67510 | -118.44443 | 12271 ft | 368 kts | 107° |
| 2026-05-01 12:38 | 33.66658 | -118.41507 | 12961 ft | 374 kts | 108° |
| 2026-05-01 12:38 | 33.65772 | -118.38558 | 13616 ft | 380 kts | 108° |
| 2026-05-01 12:39 | 33.64849 | -118.35535 | 14242 ft | 386 kts | 107° |
| 2026-05-01 12:39 | 33.64346 | -118.32395 | 14850 ft | 387 kts | 88° |
| 2026-05-01 12:39 | 33.64353 | -118.29167 | 15534 ft | 390 kts | 86° |
| 2026-05-01 12:39 | 33.64390 | -118.25906 | 16155 ft | 396 kts | 86° |
| 2026-05-01 12:40 | 33.64426 | -118.22562 | 16788 ft | 402 kts | 86° |
| 2026-05-01 12:40 | 33.64450 | -118.19229 | 17414 ft | 407 kts | 87° |
| 2026-05-01 12:40 | 33.64463 | -118.15796 | 18025 ft | 412 kts | 87° |
| 2026-05-01 12:40 | 33.64468 | -118.12346 | 18579 ft | 418 kts | 87° |
| 2026-05-01 12:41 | 33.64468 | -118.08829 | 19132 ft | 422 kts | 87° |
| 2026-05-01 12:41 | 33.64465 | -118.05318 | 19699 ft | 425 kts | 87° |
| 2026-05-01 12:41 | 33.64460 | -118.01766 | 20290 ft | 429 kts | 87° |
| 2026-05-01 12:41 | 33.64454 | -117.98130 | 20852 ft | 433 kts | 87° |
| 2026-05-01 12:42 | 33.64448 | -117.94534 | 21394 ft | 437 kts | 87° |
| 2026-05-01 12:42 | 33.64440 | -117.90846 | 21916 ft | 442 kts | 87° |
| 2026-05-01 12:42 | 33.64432 | -117.87131 | 22420 ft | 446 kts | 88° |
| 2026-05-01 12:42 | 33.64423 | -117.83417 | 22923 ft | 450 kts | 88° |
| 2026-05-01 12:43 | 33.64436 | -117.79642 | 23422 ft | 453 kts | 84° |
| 2026-05-01 12:43 | 33.64883 | -117.75955 | 23838 ft | 453 kts | 74° |
| 2026-05-01 12:43 | 33.65605 | -117.72253 | 24267 ft | 455 kts | 72° |
| 2026-05-01 12:43 | 33.66386 | -117.68561 | 24664 ft | 458 kts | 72° |
| 2026-05-01 12:44 | 33.67181 | -117.64804 | 25054 ft | 462 kts | 72° |
| 2026-05-01 12:44 | 33.67944 | -117.61080 | 25448 ft | 466 kts | 72° |
| 2026-05-01 12:44 | 33.69438 | -117.53454 | 26230 ft | 473 kts | 73° |
| 2026-05-01 12:45 | 33.70912 | -117.45707 | 26950 ft | 480 kts | 73° |
| 2026-05-01 12:45 | 33.71657 | -117.41776 | 27281 ft | 483 kts | 73° |
| 2026-05-01 12:45 | 33.72405 | -117.37826 | 27648 ft | 486 kts | 73° |
| 2026-05-01 12:46 | 33.73151 | -117.33886 | 27997 ft | 489 kts | 73° |
| 2026-05-01 12:46 | 33.73911 | -117.29869 | 28332 ft | 492 kts | 72° |
| 2026-05-01 12:46 | 33.74670 | -117.25858 | 28649 ft | 495 kts | 73° |
| 2026-05-01 12:46 | 33.75254 | -117.21737 | 28929 ft | 505 kts | 83° |
| 2026-05-01 12:47 | 33.75247 | -117.17521 | 29313 ft | 510 kts | 89° |
| 2026-05-01 12:47 | 33.75079 | -117.13247 | 29654 ft | 513 kts | 90° |
| 2026-05-01 12:47 | 33.74896 | -117.08973 | 29941 ft | 516 kts | 89° |
| 2026-05-01 12:47 | 33.74795 | -117.06109 | 30142 ft | 517 kts | 89° |
| 2026-05-01 12:48 | 33.74653 | -117.00353 | 30641 ft | 516 kts | 88° |
| 2026-05-01 12:48 | 33.74596 | -116.97473 | 30927 ft | 514 kts | 88° |
| 2026-05-01 12:48 | 33.74512 | -116.93173 | 31314 ft | 514 kts | 88° |
| 2026-05-01 12:48 | 33.74420 | -116.88872 | 31638 ft | 515 kts | 88° |
| 2026-05-01 12:49 | 33.74323 | -116.84603 | 31960 ft | 516 kts | 88° |
| 2026-05-01 12:49 | 33.74220 | -116.80256 | 32307 ft | 515 kts | 88° |
| 2026-05-01 12:49 | 33.74120 | -116.75968 | 32642 ft | 515 kts | 88° |
| 2026-05-01 12:49 | 33.74016 | -116.71651 | 32888 ft | 515 kts | 88° |
| 2026-05-01 12:50 | 33.73911 | -116.67377 | 33235 ft | 515 kts | 89° |
| 2026-05-01 12:50 | 33.73804 | -116.63070 | 33596 ft | 514 kts | 89° |
| 2026-05-01 12:50 | 33.73697 | -116.58798 | 33842 ft | 515 kts | 89° |
| 2026-05-01 12:50 | 33.73588 | -116.54474 | 34063 ft | 516 kts | 89° |
| 2026-05-01 12:51 | 33.73478 | -116.50189 | 34348 ft | 516 kts | 89° |
| 2026-05-01 12:51 | 33.73366 | -116.45871 | 34627 ft | 516 kts | 89° |
| 2026-05-01 12:51 | 33.73136 | -116.37287 | 35047 ft | 516 kts | 89° |
| 2026-05-01 12:52 | 33.73021 | -116.32961 | 35235 ft | 517 kts | 89° |
| 2026-05-01 12:52 | 33.72785 | -116.24321 | 35695 ft | 517 kts | 89° |
| 2026-05-01 12:52 | 33.72663 | -116.19967 | 35912 ft | 518 kts | 89° |
| 2026-05-01 12:53 | 33.72418 | -116.11346 | 36347 ft | 518 kts | 89° |
| 2026-05-01 12:53 | 33.72464 | -116.07017 | 36529 ft | 515 kts | 78° |
| 2026-05-01 12:53 | 33.73307 | -116.02923 | 36685 ft | 507 kts | 66° |
| 2026-05-01 12:54 | 33.74459 | -115.98894 | 36929 ft | 505 kts | 65° |
| 2026-05-01 12:54 | 33.76798 | -115.90926 | 37282 ft | 507 kts | 65° |
| 2026-05-01 12:54 | 33.77943 | -115.86953 | 37465 ft | 508 kts | 66° |
| 2026-05-01 12:55 | 33.80215 | -115.78867 | 37875 ft | 508 kts | 66° |
| 2026-05-01 12:55 | 33.81328 | -115.74838 | 38131 ft | 507 kts | 66° |
| 2026-05-01 12:55 | 33.82426 | -115.70844 | 38393 ft | 506 kts | 66° |
| 2026-05-01 12:56 | 33.83531 | -115.66819 | 38581 ft | 505 kts | 66° |
| 2026-05-01 12:56 | 33.84637 | -115.62790 | 38696 ft | 506 kts | 66° |
| 2026-05-01 12:56 | 33.85727 | -115.58814 | 38795 ft | 505 kts | 66° |
| 2026-05-01 12:57 | 33.87948 | -115.50717 | 38842 ft | 508 kts | 66° |
| 2026-05-01 12:57 | 33.91249 | -115.38634 | 38846 ft | 510 kts | 66° |
| 2026-05-01 12:58 | 33.93469 | -115.30476 | 38832 ft | 511 kts | 66° |
| 2026-05-01 12:59 | 33.96773 | -115.18288 | 38828 ft | 511 kts | 66° |
| 2026-05-01 12:59 | 34.00070 | -115.06072 | 38816 ft | 510 kts | 66° |
| 2026-05-01 13:00 | 34.03339 | -114.93907 | 38820 ft | 507 kts | 66° |
| 2026-05-01 13:01 | 34.06570 | -114.81827 | 38817 ft | 504 kts | 66° |
| 2026-05-01 13:02 | 34.09783 | -114.69772 | 38824 ft | 502 kts | 66° |
| 2026-05-01 13:07 | 34.34263 | -113.82216 | 38809 ft | 502 kts | 65° |
| 2026-05-01 13:08 | 34.36465 | -113.74203 | 38812 ft | 502 kts | 65° |
| 2026-05-01 13:08 | 34.38661 | -113.66185 | 38821 ft | 502 kts | 65° |
| 2026-05-01 13:09 | 34.40844 | -113.58195 | 38803 ft | 500 kts | 65° |
| 2026-05-01 13:09 | 34.43033 | -113.50158 | 38815 ft | 500 kts | 65° |
| 2026-05-01 13:10 | 34.45199 | -113.42181 | 38830 ft | 499 kts | 65° |
| 2026-05-01 13:10 | 34.47352 | -113.34230 | 38830 ft | 499 kts | 66° |
| 2026-05-01 13:11 | 34.49523 | -113.26193 | 38832 ft | 500 kts | 66° |
| 2026-05-01 13:11 | 34.51671 | -113.18211 | 38845 ft | 499 kts | 66° |
| 2026-05-01 13:12 | 34.53819 | -113.10208 | 38845 ft | 500 kts | 66° |
| 2026-05-01 13:12 | 34.55971 | -113.02166 | 38865 ft | 500 kts | 66° |
| 2026-05-01 13:13 | 34.58112 | -112.94146 | 38865 ft | 501 kts | 66° |
| 2026-05-01 13:13 | 34.60242 | -112.86141 | 38881 ft | 502 kts | 66° |
| 2026-05-01 13:14 | 34.62378 | -112.78086 | 38919 ft | 502 kts | 66° |
| 2026-05-01 13:14 | 34.64514 | -112.70011 | 38970 ft | 503 kts | 66° |
| 2026-05-01 13:15 | 34.66659 | -112.61871 | 39018 ft | 503 kts | 66° |
| 2026-05-01 13:15 | 34.68784 | -112.53788 | 39052 ft | 503 kts | 66° |
| 2026-05-01 13:16 | 34.70897 | -112.45723 | 39055 ft | 503 kts | 66° |
| 2026-05-01 13:16 | 34.73027 | -112.37545 | 39055 ft | 503 kts | 66° |
| 2026-05-01 13:17 | 34.77222 | -112.21351 | 38988 ft | 503 kts | 67° |
| 2026-05-01 13:18 | 34.80364 | -112.09164 | 38966 ft | 503 kts | 67° |
| 2026-05-01 13:18 | 34.82444 | -112.01061 | 39014 ft | 502 kts | 67° |
| 2026-05-01 13:19 | 34.84517 | -111.92964 | 39045 ft | 502 kts | 67° |
| 2026-05-01 13:20 | 34.87625 | -111.80775 | 39059 ft | 502 kts | 67° |
| 2026-05-01 13:20 | 34.89685 | -111.72670 | 39039 ft | 501 kts | 67° |
| 2026-05-01 13:21 | 34.92762 | -111.60509 | 39030 ft | 501 kts | 68° |
| 2026-05-01 13:21 | 34.94817 | -111.52354 | 39032 ft | 502 kts | 68° |
| 2026-05-01 13:22 | 34.96854 | -111.44246 | 39022 ft | 502 kts | 68° |
| 2026-05-01 13:22 | 34.98904 | -111.36067 | 38991 ft | 502 kts | 68° |
| 2026-05-01 13:23 | 35.00939 | -111.27914 | 38961 ft | 503 kts | 68° |
| 2026-05-01 13:23 | 35.02966 | -111.19766 | 38946 ft | 504 kts | 68° |
| 2026-05-01 13:24 | 35.04992 | -111.11597 | 38965 ft | 504 kts | 68° |
| 2026-05-01 13:25 | 35.08030 | -110.99301 | 39008 ft | 505 kts | 68° |
| 2026-05-01 13:25 | 35.10051 | -110.91087 | 39036 ft | 505 kts | 69° |
| 2026-05-01 13:26 | 35.12074 | -110.82838 | 39060 ft | 506 kts | 69° |
| 2026-05-01 13:26 | 35.14081 | -110.74630 | 39062 ft | 506 kts | 69° |
| 2026-05-01 13:27 | 35.16089 | -110.66389 | 39051 ft | 506 kts | 69° |
| 2026-05-01 13:27 | 35.19094 | -110.54008 | 39006 ft | 506 kts | 69° |
| 2026-05-01 13:28 | 35.22067 | -110.41697 | 38951 ft | 505 kts | 69° |
| 2026-05-01 13:29 | 35.26024 | -110.25215 | 38917 ft | 504 kts | 70° |
| 2026-05-01 13:31 | 35.31895 | -110.00560 | 38913 ft | 503 kts | 70° |
| 2026-05-01 13:32 | 35.36741 | -109.80025 | 38911 ft | 502 kts | 70° |
| 2026-05-01 13:33 | 35.41556 | -109.59447 | 38898 ft | 502 kts | 71° |
| 2026-05-01 13:34 | 35.45372 | -109.43012 | 38898 ft | 502 kts | 71° |
| 2026-05-01 13:35 | 35.48234 | -109.30614 | 38969 ft | 503 kts | 71° |
| 2026-05-01 13:36 | 35.51071 | -109.18259 | 39043 ft | 502 kts | 71° |
| 2026-05-01 13:36 | 35.53895 | -109.05896 | 39092 ft | 502 kts | 71° |
| 2026-05-01 13:37 | 35.55464 | -108.98999 | 39087 ft | 502 kts | 72° |
| 2026-05-01 13:37 | 35.57335 | -108.90753 | 39078 ft | 502 kts | 72° |
| 2026-05-01 13:38 | 35.60127 | -108.78387 | 39101 ft | 501 kts | 72° |
| 2026-05-01 13:39 | 35.61980 | -108.70147 | 39064 ft | 501 kts | 72° |
| 2026-05-01 13:39 | 35.63828 | -108.61899 | 39008 ft | 501 kts | 72° |
| 2026-05-01 13:40 | 35.65683 | -108.53590 | 38952 ft | 501 kts | 72° |
| 2026-05-01 13:40 | 35.67509 | -108.45383 | 38906 ft | 501 kts | 72° |
| 2026-05-01 13:41 | 35.69340 | -108.37124 | 38872 ft | 501 kts | 72° |
| 2026-05-01 13:41 | 35.71167 | -108.28855 | 38880 ft | 500 kts | 72° |
| 2026-05-01 13:42 | 35.72993 | -108.20559 | 38890 ft | 500 kts | 73° |
| 2026-05-01 13:42 | 35.74798 | -108.12333 | 38896 ft | 500 kts | 73° |
| 2026-05-01 13:43 | 35.76600 | -108.04086 | 38907 ft | 500 kts | 73° |
| 2026-05-01 13:43 | 35.78398 | -107.95834 | 38919 ft | 500 kts | 73° |
| 2026-05-01 13:44 | 35.80197 | -107.87543 | 38933 ft | 500 kts | 73° |
| 2026-05-01 13:44 | 35.81985 | -107.79274 | 38940 ft | 500 kts | 73° |
| 2026-05-01 13:45 | 35.83768 | -107.70998 | 38951 ft | 500 kts | 73° |
| 2026-05-01 13:45 | 35.85546 | -107.62715 | 38961 ft | 500 kts | 73° |
| 2026-05-01 13:46 | 35.87328 | -107.54383 | 38969 ft | 501 kts | 73° |
| 2026-05-01 13:46 | 35.89090 | -107.46115 | 38976 ft | 501 kts | 73° |
| 2026-05-01 13:47 | 35.90852 | -107.37816 | 38977 ft | 501 kts | 73° |
| 2026-05-01 13:47 | 35.92613 | -107.29487 | 38980 ft | 501 kts | 74° |
| 2026-05-01 13:48 | 35.94369 | -107.21157 | 38976 ft | 501 kts | 74° |
| 2026-05-01 13:48 | 35.96113 | -107.12851 | 38981 ft | 501 kts | 74° |
| 2026-05-01 13:49 | 35.97863 | -107.04483 | 38974 ft | 502 kts | 74° |
| 2026-05-01 13:49 | 35.99597 | -106.96163 | 38978 ft | 502 kts | 74° |
| 2026-05-01 13:50 | 36.01325 | -106.87836 | 38984 ft | 502 kts | 74° |
| 2026-05-01 13:50 | 36.03057 | -106.79463 | 38982 ft | 503 kts | 74° |
| 2026-05-01 13:51 | 36.04780 | -106.71103 | 38981 ft | 503 kts | 74° |
| 2026-05-01 13:51 | 36.06505 | -106.62696 | 38999 ft | 503 kts | 74° |
| 2026-05-01 13:52 | 36.08219 | -106.54312 | 39027 ft | 504 kts | 74° |
| 2026-05-01 13:52 | 36.09936 | -106.45882 | 39048 ft | 504 kts | 74° |
| 2026-05-01 13:53 | 36.11643 | -106.37472 | 39062 ft | 505 kts | 75° |
| 2026-05-01 13:53 | 36.14634 | -106.24998 | 39050 ft | 504 kts | 70° |
| 2026-05-01 13:54 | 36.16810 | -106.16784 | 39029 ft | 504 kts | 70° |
| 2026-05-01 13:54 | 36.18948 | -106.08555 | 39009 ft | 504 kts | 70° |
| 2026-05-01 13:55 | 36.21067 | -106.00243 | 39002 ft | 504 kts | 71° |
| 2026-05-01 13:55 | 36.23162 | -105.91954 | 39001 ft | 504 kts | 71° |
| 2026-05-01 13:56 | 36.25251 | -105.83669 | 39016 ft | 504 kts | 71° |
| 2026-05-01 13:56 | 36.27333 | -105.75390 | 39020 ft | 504 kts | 71° |
| 2026-05-01 13:57 | 36.29415 | -105.67091 | 39042 ft | 504 kts | 71° |
| 2026-05-01 13:57 | 36.31491 | -105.58785 | 39100 ft | 504 kts | 71° |
| 2026-05-01 13:58 | 36.33553 | -105.50509 | 39156 ft | 503 kts | 71° |
| 2026-05-01 13:58 | 36.35614 | -105.42204 | 39210 ft | 502 kts | 71° |
| 2026-05-01 13:59 | 36.37664 | -105.33926 | 39236 ft | 502 kts | 71° |
| 2026-05-01 13:59 | 36.39715 | -105.25612 | 39230 ft | 502 kts | 72° |
| 2026-05-01 14:00 | 36.41753 | -105.17322 | 39218 ft | 503 kts | 72° |
| 2026-05-01 14:00 | 36.43787 | -105.09022 | 39190 ft | 503 kts | 72° |
| 2026-05-01 14:01 | 36.45810 | -105.00732 | 39166 ft | 503 kts | 72° |
| 2026-05-01 14:01 | 36.47837 | -104.92408 | 39149 ft | 503 kts | 72° |
| 2026-05-01 14:02 | 36.49858 | -104.84029 | 39135 ft | 504 kts | 72° |
| 2026-05-01 14:02 | 36.51780 | -104.75685 | 39149 ft | 505 kts | 73° |
| 2026-05-01 14:03 | 36.53682 | -104.67290 | 39168 ft | 505 kts | 73° |
| 2026-05-01 14:03 | 36.55591 | -104.58873 | 39183 ft | 506 kts | 73° |
| 2026-05-01 14:04 | 36.57502 | -104.50457 | 39187 ft | 506 kts | 73° |
| 2026-05-01 14:04 | 36.59097 | -104.43418 | 39196 ft | 506 kts | 73° |
| 2026-05-01 14:05 | 36.61321 | -104.33573 | 39187 ft | 507 kts | 73° |
| 2026-05-01 14:05 | 36.63223 | -104.25116 | 39182 ft | 507 kts | 73° |
| 2026-05-01 14:06 | 36.65110 | -104.16690 | 39164 ft | 507 kts | 73° |
| 2026-05-01 14:06 | 36.66998 | -104.08233 | 39158 ft | 506 kts | 73° |
| 2026-05-01 14:07 | 36.68879 | -103.99772 | 39163 ft | 506 kts | 73° |
| 2026-05-01 14:08 | 36.71682 | -103.87113 | 39177 ft | 506 kts | 74° |
| 2026-05-01 14:08 | 36.73552 | -103.78628 | 39158 ft | 506 kts | 74° |
| 2026-05-01 14:09 | 36.75408 | -103.70170 | 39177 ft | 505 kts | 74° |
| 2026-05-01 14:09 | 36.77254 | -103.61733 | 39172 ft | 505 kts | 74° |
| 2026-05-01 14:10 | 36.79102 | -103.53253 | 39178 ft | 506 kts | 74° |
| 2026-05-01 14:10 | 36.80937 | -103.44800 | 39184 ft | 506 kts | 74° |
| 2026-05-01 14:11 | 36.82777 | -103.36294 | 39171 ft | 507 kts | 74° |
| 2026-05-01 14:11 | 36.85529 | -103.23509 | 39174 ft | 509 kts | 74° |
| 2026-05-01 14:12 | 36.87356 | -103.14983 | 39176 ft | 510 kts | 74° |
| 2026-05-01 14:12 | 36.89173 | -103.06466 | 39164 ft | 511 kts | 74° |
| 2026-05-01 14:13 | 36.90692 | -102.99325 | 39164 ft | 511 kts | 74° |
| 2026-05-01 14:13 | 36.92823 | -102.89267 | 39157 ft | 512 kts | 74° |
| 2026-05-01 14:14 | 36.94640 | -102.80655 | 39157 ft | 513 kts | 74° |
| 2026-05-01 14:14 | 36.96454 | -102.72024 | 39163 ft | 513 kts | 74° |
| 2026-05-01 14:15 | 36.98257 | -102.63407 | 39154 ft | 514 kts | 74° |
| 2026-05-01 14:15 | 37.00058 | -102.54772 | 39162 ft | 514 kts | 74° |
| 2026-05-01 14:16 | 37.01855 | -102.46120 | 39160 ft | 514 kts | 74° |
| 2026-05-01 14:16 | 37.03656 | -102.37412 | 39159 ft | 514 kts | 74° |
| 2026-05-01 14:17 | 37.05440 | -102.28751 | 39170 ft | 514 kts | 74° |
| 2026-05-01 14:17 | 37.07217 | -102.20091 | 39192 ft | 514 kts | 75° |
| 2026-05-01 14:18 | 37.08985 | -102.11441 | 39220 ft | 514 kts | 75° |
| 2026-05-01 14:18 | 37.10463 | -102.04184 | 39222 ft | 514 kts | 75° |
| 2026-05-01 14:19 | 37.12510 | -101.94089 | 39234 ft | 514 kts | 75° |
| 2026-05-01 14:19 | 37.14261 | -101.85418 | 39234 ft | 513 kts | 75° |
| 2026-05-01 14:20 | 37.16877 | -101.72395 | 39219 ft | 512 kts | 75° |
| 2026-05-01 14:21 | 37.18605 | -101.63747 | 39203 ft | 512 kts | 75° |
| 2026-05-01 14:21 | 37.20034 | -101.56569 | 39216 ft | 512 kts | 75° |
| 2026-05-01 14:22 | 37.22619 | -101.43525 | 39223 ft | 512 kts | 75° |
| 2026-05-01 14:22 | 37.24327 | -101.34860 | 39224 ft | 512 kts | 75° |
| 2026-05-01 14:23 | 37.26026 | -101.26208 | 39217 ft | 512 kts | 75° |
| 2026-05-01 14:23 | 37.27721 | -101.17533 | 39206 ft | 512 kts | 75° |
| 2026-05-01 14:24 | 37.29409 | -101.08864 | 39193 ft | 512 kts | 75° |
| 2026-05-01 14:24 | 37.31100 | -101.00144 | 39193 ft | 512 kts | 75° |
| 2026-05-01 14:25 | 37.32770 | -100.91489 | 39186 ft | 512 kts | 76° |
| 2026-05-01 14:25 | 37.34442 | -100.82794 | 39180 ft | 512 kts | 76° |
| 2026-05-01 14:26 | 37.36941 | -100.69720 | 39175 ft | 512 kts | 76° |
| 2026-05-01 14:27 | 37.38594 | -100.61028 | 39179 ft | 513 kts | 76° |
| 2026-05-01 14:27 | 37.40242 | -100.52328 | 39178 ft | 513 kts | 76° |
| 2026-05-01 14:28 | 37.42717 | -100.39186 | 39177 ft | 514 kts | 76° |
| 2026-05-01 14:28 | 37.44355 | -100.30441 | 39171 ft | 514 kts | 76° |
| 2026-05-01 14:29 | 37.45985 | -100.21701 | 39172 ft | 514 kts | 76° |
| 2026-05-01 14:30 | 37.49237 | -100.04151 | 39175 ft | 515 kts | 76° |
| 2026-05-01 14:31 | 37.51164 | -99.90830 | 39189 ft | 516 kts | 83° |
| 2026-05-01 14:31 | 37.52085 | -99.81843 | 39179 ft | 516 kts | 83° |
| 2026-05-01 14:32 | 37.53013 | -99.72864 | 39175 ft | 517 kts | 83° |
| 2026-05-01 14:32 | 37.53973 | -99.63933 | 39173 ft | 517 kts | 82° |
| 2026-05-01 14:33 | 37.54950 | -99.54950 | 39169 ft | 517 kts | 82° |
| 2026-05-01 14:33 | 37.55918 | -99.45988 | 39172 ft | 518 kts | 83° |
| 2026-05-01 14:34 | 37.56880 | -99.37000 | 39173 ft | 518 kts | 83° |
| 2026-05-01 14:34 | 37.57838 | -99.27967 | 39171 ft | 518 kts | 83° |
| 2026-05-01 14:35 | 37.58789 | -99.18932 | 39172 ft | 518 kts | 83° |
| 2026-05-01 14:35 | 37.59729 | -99.09935 | 39183 ft | 518 kts | 83° |
| 2026-05-01 14:36 | 37.60662 | -99.00932 | 39187 ft | 519 kts | 83° |
| 2026-05-01 14:36 | 37.61591 | -98.91906 | 39194 ft | 519 kts | 83° |
| 2026-05-01 14:37 | 37.62510 | -98.82903 | 39202 ft | 519 kts | 83° |
| 2026-05-01 14:37 | 37.63426 | -98.73868 | 39205 ft | 519 kts | 83° |
| 2026-05-01 14:38 | 37.64336 | -98.64812 | 39204 ft | 520 kts | 83° |
| 2026-05-01 14:38 | 37.65237 | -98.55782 | 39197 ft | 520 kts | 83° |
| 2026-05-01 14:39 | 37.66132 | -98.46733 | 39189 ft | 520 kts | 83° |
| 2026-05-01 14:39 | 37.67027 | -98.37617 | 39181 ft | 520 kts | 84° |
| 2026-05-01 14:40 | 37.67907 | -98.28580 | 39166 ft | 521 kts | 84° |
| 2026-05-01 14:40 | 37.68783 | -98.19511 | 39169 ft | 521 kts | 84° |
| 2026-05-01 14:41 | 37.69654 | -98.10427 | 39165 ft | 521 kts | 84° |
| 2026-05-01 14:41 | 37.70517 | -98.01337 | 39167 ft | 521 kts | 84° |
| 2026-05-01 14:42 | 37.71372 | -97.92272 | 39169 ft | 522 kts | 84° |
| 2026-05-01 14:42 | 37.72223 | -97.83160 | 39170 ft | 522 kts | 84° |
| 2026-05-01 14:43 | 37.73070 | -97.74013 | 39177 ft | 522 kts | 84° |
| 2026-05-01 14:43 | 37.73909 | -97.64894 | 39179 ft | 523 kts | 84° |
| 2026-05-01 14:44 | 37.74843 | -97.55805 | 39177 ft | 523 kts | 80° |
| 2026-05-01 14:44 | 37.77207 | -97.42347 | 39183 ft | 524 kts | 77° |
| 2026-05-01 14:45 | 37.79662 | -97.28846 | 39187 ft | 525 kts | 77° |
| 2026-05-01 14:46 | 37.81218 | -97.19877 | 39180 ft | 525 kts | 78° |
| 2026-05-01 14:46 | 37.83545 | -97.06268 | 39184 ft | 526 kts | 78° |
| 2026-05-01 14:47 | 37.85083 | -96.97240 | 39186 ft | 527 kts | 78° |
| 2026-05-01 14:48 | 37.87391 | -96.83630 | 39185 ft | 527 kts | 78° |
| 2026-05-01 14:48 | 37.89685 | -96.70004 | 39185 ft | 528 kts | 78° |
| 2026-05-01 14:49 | 37.92724 | -96.51789 | 39185 ft | 529 kts | 78° |
| 2026-05-01 14:50 | 37.95732 | -96.33579 | 39188 ft | 530 kts | 79° |
| 2026-05-01 14:51 | 37.97980 | -96.19846 | 39184 ft | 530 kts | 79° |
| 2026-05-01 14:52 | 38.00214 | -96.06087 | 39183 ft | 531 kts | 79° |
| 2026-05-01 14:53 | 38.02431 | -95.92341 | 39182 ft | 531 kts | 79° |
| 2026-05-01 14:53 | 38.03998 | -95.83194 | 39182 ft | 532 kts | 77° |
| 2026-05-01 14:54 | 38.05656 | -95.74065 | 39178 ft | 532 kts | 77° |
| 2026-05-01 14:54 | 38.07303 | -95.64930 | 39180 ft | 532 kts | 77° |
| 2026-05-01 14:55 | 38.08935 | -95.55711 | 39181 ft | 533 kts | 78° |
| 2026-05-01 14:55 | 38.10540 | -95.46557 | 39177 ft | 533 kts | 78° |
| 2026-05-01 14:56 | 38.12143 | -95.37372 | 39171 ft | 534 kts | 78° |
| 2026-05-01 14:56 | 38.13740 | -95.28183 | 39177 ft | 534 kts | 78° |
| 2026-05-01 14:57 | 38.15341 | -95.18928 | 39170 ft | 535 kts | 78° |
| 2026-05-01 14:57 | 38.17725 | -95.05058 | 39176 ft | 535 kts | 78° |
| 2026-05-01 14:58 | 38.19304 | -94.95818 | 39179 ft | 536 kts | 78° |
| 2026-05-01 14:58 | 38.20873 | -94.86586 | 39174 ft | 537 kts | 78° |
| 2026-05-01 14:59 | 38.22443 | -94.77304 | 39173 ft | 537 kts | 78° |
| 2026-05-01 14:59 | 38.24007 | -94.68009 | 39170 ft | 538 kts | 78° |
| 2026-05-01 15:00 | 38.26352 | -94.53983 | 39170 ft | 538 kts | 78° |
| 2026-05-01 15:01 | 38.27893 | -94.44700 | 39170 ft | 539 kts | 78° |
| 2026-05-01 15:01 | 38.29430 | -94.35371 | 39179 ft | 539 kts | 78° |
| 2026-05-01 15:02 | 38.30955 | -94.26055 | 39193 ft | 539 kts | 78° |
| 2026-05-01 15:02 | 38.32478 | -94.16704 | 39181 ft | 540 kts | 78° |
| 2026-05-01 15:03 | 38.33993 | -94.07361 | 39174 ft | 540 kts | 78° |
| 2026-05-01 15:03 | 38.35511 | -93.97945 | 39177 ft | 540 kts | 78° |
| 2026-05-01 15:04 | 38.37013 | -93.88584 | 39175 ft | 540 kts | 78° |
| 2026-05-01 15:04 | 38.38508 | -93.79213 | 39178 ft | 540 kts | 78° |
| 2026-05-01 15:05 | 38.39997 | -93.69827 | 39178 ft | 541 kts | 78° |
| 2026-05-01 15:05 | 38.41479 | -93.60434 | 39175 ft | 541 kts | 78° |
| 2026-05-01 15:06 | 38.42958 | -93.51007 | 39178 ft | 541 kts | 78° |
| 2026-05-01 15:06 | 38.44178 | -93.43193 | 39187 ft | 541 kts | 78° |
| 2026-05-01 15:07 | 38.45644 | -93.33758 | 39178 ft | 542 kts | 78° |
| 2026-05-01 15:07 | 38.47100 | -93.24339 | 39184 ft | 542 kts | 78° |
| 2026-05-01 15:08 | 38.48553 | -93.14879 | 39174 ft | 542 kts | 78° |
| 2026-05-01 15:08 | 38.49998 | -93.05416 | 39172 ft | 542 kts | 79° |
| 2026-05-01 15:09 | 38.51430 | -92.95992 | 39172 ft | 543 kts | 79° |
| 2026-05-01 15:09 | 38.52864 | -92.86498 | 39168 ft | 543 kts | 79° |
| 2026-05-01 15:10 | 38.54281 | -92.77058 | 39156 ft | 544 kts | 79° |
| 2026-05-01 15:10 | 38.55712 | -92.67479 | 38004 ft | 552 kts | 79° |
| 2026-05-01 15:10 | 38.56428 | -92.62662 | 37375 ft | 551 kts | 79° |
| 2026-05-01 15:11 | 38.57147 | -92.57811 | 36744 ft | 550 kts | 79° |
| 2026-05-01 15:11 | 38.58561 | -92.48224 | 35356 ft | 554 kts | 80° |
| 2026-05-01 15:11 | 38.59277 | -92.43345 | 34607 ft | 557 kts | 80° |
| 2026-05-01 15:12 | 38.59985 | -92.38508 | 33803 ft | 561 kts | 80° |
| 2026-05-01 15:12 | 38.61425 | -92.28624 | 32081 ft | 565 kts | 80° |
| 2026-05-01 15:12 | 38.62137 | -92.23717 | 31204 ft | 567 kts | 79° |
| 2026-05-01 15:13 | 38.64260 | -92.08996 | 29165 ft | 555 kts | 79° |
| 2026-05-01 15:14 | 38.65631 | -91.99416 | 27818 ft | 532 kts | 78° |
| 2026-05-01 15:14 | 38.66279 | -91.94865 | 27473 ft | 511 kts | 78° |
| 2026-05-01 15:14 | 38.67519 | -91.86110 | 26307 ft | 490 kts | 78° |
| 2026-05-01 15:15 | 38.68709 | -91.77682 | 25189 ft | 481 kts | 77° |
| 2026-05-01 15:15 | 38.69339 | -91.69193 | 24178 ft | 469 kts | 89° |
| 2026-05-01 15:16 | 38.69308 | -91.60956 | 22968 ft | 458 kts | 89° |
| 2026-05-01 15:16 | 38.69297 | -91.52847 | 21805 ft | 451 kts | 88° |
| 2026-05-01 15:17 | 38.69328 | -91.45029 | 20669 ft | 430 kts | 88° |
| 2026-05-01 15:18 | 38.69372 | -91.33802 | 19366 ft | 422 kts | 88° |
| 2026-05-01 15:18 | 38.69385 | -91.30077 | 18838 ft | 412 kts | 87° |
| 2026-05-01 15:19 | 38.69421 | -91.19421 | 17046 ft | 388 kts | 86° |
| 2026-05-01 15:19 | 38.69610 | -91.12584 | 16131 ft | 388 kts | 85° |
| 2026-05-01 15:19 | 38.69714 | -91.09114 | 15601 ft | 388 kts | 85° |
| 2026-05-01 15:20 | 38.69885 | -91.02373 | 14552 ft | 372 kts | 85° |
| 2026-05-01 15:20 | 38.69964 | -90.99100 | 14055 ft | 370 kts | 85° |
| 2026-05-01 15:20 | 38.70043 | -90.95794 | 13491 ft | 370 kts | 85° |
| 2026-05-01 15:21 | 38.70121 | -90.92524 | 12939 ft | 367 kts | 85° |
| 2026-05-01 15:21 | 38.70195 | -90.89301 | 12396 ft | 355 kts | 85° |
| 2026-05-01 15:21 | 38.70266 | -90.86193 | 11892 ft | 348 kts | 85° |
| 2026-05-01 15:21 | 38.70338 | -90.83110 | 11407 ft | 346 kts | 85° |
| 2026-05-01 15:22 | 38.70479 | -90.76979 | 10431 ft | 339 kts | 85° |
| 2026-05-01 15:22 | 38.70540 | -90.74061 | 10298 ft | 318 kts | 85° |
| 2026-05-01 15:22 | 38.70607 | -90.71298 | 10159 ft | 307 kts | 83° |
| 2026-05-01 15:23 | 38.70720 | -90.68601 | 10032 ft | 299 kts | 82° |
| 2026-05-01 15:23 | 38.70842 | -90.66020 | 9746 ft | 288 kts | 82° |
| 2026-05-01 15:23 | 38.70959 | -90.63536 | 9417 ft | 279 kts | 82° |
| 2026-05-01 15:23 | 38.71072 | -90.61072 | 9103 ft | 278 kts | 82° |
| 2026-05-01 15:24 | 38.71186 | -90.58556 | 8748 ft | 281 kts | 83° |
| 2026-05-01 15:24 | 38.71293 | -90.56082 | 8425 ft | 279 kts | 83° |
| 2026-05-01 15:24 | 38.71373 | -90.53603 | 8075 ft | 274 kts | 90° |
| 2026-05-01 15:24 | 38.70859 | -90.51267 | 7811 ft | 277 kts | 116° |
| 2026-05-01 15:25 | 38.69867 | -90.49188 | 7594 ft | 276 kts | 121° |
| 2026-05-01 15:25 | 38.68842 | -90.47173 | 7325 ft | 267 kts | 121° |
| 2026-05-01 15:25 | 38.67841 | -90.45192 | 7080 ft | 258 kts | 120° |
| 2026-05-01 15:25 | 38.66884 | -90.43280 | 6844 ft | 251 kts | 120° |
| 2026-05-01 15:26 | 38.65967 | -90.41434 | 6578 ft | 245 kts | 120° |
| 2026-05-01 15:26 | 38.65058 | -90.39593 | 6357 ft | 241 kts | 120° |
| 2026-05-01 15:26 | 38.64166 | -90.37788 | 6119 ft | 241 kts | 120° |
| 2026-05-01 15:26 | 38.63263 | -90.35958 | 5877 ft | 244 kts | 119° |
| 2026-05-01 15:27 | 38.62368 | -90.34148 | 5671 ft | 244 kts | 119° |
| 2026-05-01 15:27 | 38.61456 | -90.32308 | 5409 ft | 242 kts | 119° |
| 2026-05-01 15:27 | 38.60557 | -90.30494 | 5163 ft | 239 kts | 119° |
| 2026-05-01 15:28 | 38.59309 | -90.26752 | 4695 ft | 221 kts | 79° |
| 2026-05-01 15:28 | 38.59755 | -90.24982 | 4536 ft | 203 kts | 54° |
| 2026-05-01 15:28 | 38.60624 | -90.23687 | 4341 ft | 186 kts | 36° |
| 2026-05-01 15:29 | 38.62637 | -90.21687 | 3996 ft | 184 kts | 33° |
| 2026-05-01 15:29 | 38.63667 | -90.20686 | 3850 ft | 195 kts | 34° |
| 2026-05-01 15:29 | 38.66098 | -90.19622 | 3494 ft | 183 kts | 340° |
| 2026-05-01 15:30 | 38.67798 | -90.21857 | 2900 ft | 171 kts | 311° |
| 2026-05-01 15:31 | 38.70208 | -90.26514 | 2108 ft | 137 kts | 304° |
| 2026-05-01 15:31 | 38.71222 | -90.28563 | 1665 ft | 131 kts | 304° |
| 2026-05-01 15:32 | 38.72176 | -90.30554 | 1244 ft | 130 kts | 303° |
| 2026-05-01 15:32 | 38.73094 | -90.32422 | 887 ft | 121 kts | 304° |
| 2026-05-01 15:33 | 38.74365 | -90.34979 | 585 ft | 92 kts | 302° |